createdAt,value
2023-04-15T00:00:06.064Z,7.50
2023-04-15T00:01:06.756Z,7.47
2023-04-15T00:02:07.489Z,7.47
2023-04-15T00:03:08.336Z,7.45
2023-04-15T00:04:09.226Z,7.41
2023-04-15T00:05:10.029Z,7.42
2023-04-15T00:06:11.305Z,7.42
2023-04-15T00:07:11.393Z,7.44
2023-04-15T00:08:12.114Z,7.44
2023-04-15T00:09:12.971Z,7.41
2023-04-15T00:10:13.913Z,7.37
2023-04-15T00:11:14.785Z,7.37
2023-04-15T00:12:15.986Z,7.37
2023-04-15T00:13:16.099Z,7.36
2023-04-15T00:14:16.776Z,7.34
2023-04-15T00:15:17.545Z,7.34
2023-04-15T00:16:18.277Z,7.32
2023-04-15T00:17:19.080Z,7.32
2023-04-15T00:18:19.834Z,7.30
2023-04-15T00:19:21.436Z,7.29
2023-04-15T00:20:21.540Z,7.29
2023-04-15T00:21:22.283Z,7.26
2023-04-15T00:22:22.953Z,7.26
2023-04-15T00:23:23.655Z,7.23
2023-04-15T00:24:24.342Z,7.24
2023-04-15T00:25:25.052Z,7.26
2023-04-15T00:26:25.738Z,7.23
2023-04-15T00:27:26.446Z,7.19
2023-04-15T00:28:27.147Z,7.18
2023-04-15T00:29:27.846Z,7.15
2023-04-15T00:30:28.536Z,7.14
2023-04-15T00:31:29.260Z,7.09
2023-04-15T00:32:30.125Z,7.11
2023-04-15T00:33:30.830Z,7.09
2023-04-15T00:34:31.496Z,7.05
2023-04-15T00:35:32.328Z,7.05
2023-04-15T00:36:33.127Z,7.07
2023-04-15T00:37:33.792Z,7.07
2023-04-15T00:38:34.487Z,7.07
2023-04-15T00:39:35.192Z,7.08
2023-04-15T00:40:35.876Z,7.08
2023-04-15T00:41:36.561Z,7.11
2023-04-15T00:42:37.371Z,7.12
2023-04-15T00:43:38.080Z,7.15
2023-04-15T00:44:38.770Z,7.16
2023-04-15T00:45:39.557Z,7.18
2023-04-15T00:46:40.344Z,7.18
2023-04-15T00:47:41.077Z,7.19
2023-04-15T00:48:41.735Z,7.24
2023-04-15T00:49:43.373Z,7.21
2023-04-15T00:50:43.522Z,7.23
2023-04-15T00:51:44.908Z,7.24
2023-04-15T00:52:45.029Z,7.27
2023-04-15T00:53:45.754Z,7.26
2023-04-15T00:54:46.432Z,7.30
2023-04-15T00:55:47.119Z,7.29
2023-04-15T00:56:47.804Z,7.29
2023-04-15T00:57:48.554Z,7.30
2023-04-15T00:58:49.231Z,7.30
2023-04-15T00:59:49.921Z,7.27
2023-04-15T01:00:50.609Z,7.24
2023-04-15T01:01:51.414Z,7.23
2023-04-15T01:02:52.300Z,7.23
2023-04-15T01:03:53.215Z,7.23
2023-04-15T01:04:53.964Z,7.21
2023-04-15T01:05:54.651Z,7.16
2023-04-15T01:06:55.341Z,7.15
2023-04-15T01:07:56.085Z,7.12
2023-04-15T01:08:57.821Z,7.08
2023-04-15T01:09:57.669Z,7.05
2023-04-15T01:10:58.353Z,7.04
2023-04-15T01:11:59.038Z,7.00
2023-04-15T01:12:59.731Z,7.00
2023-04-15T01:14:01.907Z,7.00
2023-04-15T01:15:01.385Z,6.99
2023-04-15T01:16:01.782Z,6.97
2023-04-15T01:17:03.434Z,6.97
2023-04-15T01:18:07.045Z,6.96
2023-04-15T01:19:04.274Z,6.96
2023-04-15T01:20:07.484Z,6.96
2023-04-15T01:21:05.916Z,6.96
2023-04-15T01:22:07.398Z,6.91
2023-04-15T01:23:07.521Z,6.90
2023-04-15T01:24:08.998Z,6.90
2023-04-15T01:25:09.351Z,6.89
2023-04-15T01:26:10.062Z,6.87
2023-04-15T01:27:10.759Z,6.86
2023-04-15T01:28:11.445Z,6.86
2023-04-15T01:29:12.164Z,6.81
2023-04-15T01:30:12.831Z,6.83
2023-04-15T01:31:13.584Z,6.82
2023-04-15T01:32:14.276Z,6.81
2023-04-15T01:33:15.078Z,6.81
2023-04-15T01:34:15.791Z,6.81
2023-04-15T01:35:16.468Z,6.76
2023-04-15T01:36:17.166Z,6.73
2023-04-15T01:37:17.848Z,6.72
2023-04-15T01:38:18.631Z,6.72
2023-04-15T01:39:19.315Z,6.71
2023-04-15T01:40:20.037Z,6.69
2023-04-15T01:41:20.709Z,6.69
2023-04-15T01:42:21.410Z,6.69
2023-04-15T01:43:22.103Z,6.65
2023-04-15T01:44:22.803Z,6.65
2023-04-15T01:45:23.537Z,6.63
2023-04-15T01:46:24.276Z,6.61
2023-04-15T01:47:25.022Z,6.61
2023-04-15T01:48:27.038Z,6.63
2023-04-15T01:49:26.564Z,6.63
2023-04-15T01:50:27.236Z,6.60
2023-04-15T01:51:27.917Z,6.61
2023-04-15T01:52:28.655Z,6.60
2023-04-15T01:53:29.495Z,6.57
2023-04-15T01:54:30.168Z,6.55
2023-04-15T01:55:30.856Z,6.55
2023-04-15T01:56:31.569Z,6.51
2023-04-15T01:57:32.284Z,6.51
2023-04-15T01:58:33.743Z,6.50
2023-04-15T01:59:34.191Z,6.45
2023-04-15T02:00:34.896Z,6.43
2023-04-15T02:01:36.427Z,6.42
2023-04-15T02:02:37.330Z,6.39
2023-04-15T02:03:37.579Z,6.38
2023-04-15T02:04:38.312Z,6.35
2023-04-15T02:05:39.007Z,6.35
2023-04-15T02:06:39.753Z,6.35
2023-04-15T02:07:40.467Z,6.33
2023-04-15T02:08:41.132Z,6.32
2023-04-15T02:09:41.808Z,6.30
2023-04-15T02:10:45.580Z,6.28
2023-04-15T02:11:43.438Z,6.25
2023-04-15T02:12:44.160Z,6.24
2023-04-15T02:13:47.908Z,6.24
2023-04-15T02:14:45.704Z,6.25
2023-04-15T02:15:46.384Z,6.24
2023-04-15T02:16:47.116Z,6.21
2023-04-15T02:17:47.869Z,6.25
2023-04-15T02:18:48.602Z,6.21
2023-04-15T02:19:49.311Z,6.24
2023-04-15T02:20:50.076Z,6.21
2023-04-15T02:21:50.730Z,6.20
2023-04-15T02:22:51.444Z,6.19
2023-04-15T02:23:53.609Z,6.20
2023-04-15T02:24:53.009Z,6.19
2023-04-15T02:25:54.461Z,6.17
2023-04-15T02:26:54.585Z,6.19
2023-04-15T02:27:55.282Z,6.17
2023-04-15T02:28:55.993Z,6.16
2023-04-15T02:29:56.675Z,6.17
2023-04-15T02:30:57.360Z,6.16
2023-04-15T02:31:58.072Z,6.13
2023-04-15T02:32:59.188Z,6.13
2023-04-15T02:33:59.287Z,6.14
2023-04-15T02:34:59.975Z,6.13
2023-04-15T02:36:00.661Z,6.11
2023-04-15T02:37:01.691Z,6.08
2023-04-15T02:38:02.394Z,6.08
2023-04-15T02:39:03.533Z,6.06
2023-04-15T02:40:03.771Z,6.05
2023-04-15T02:41:04.462Z,6.06
2023-04-15T02:42:05.143Z,6.03
2023-04-15T02:43:05.841Z,6.02
2023-04-15T02:44:06.528Z,6.02
2023-04-15T02:45:07.197Z,5.99
2023-04-15T02:46:07.896Z,5.96
2023-04-15T02:47:08.639Z,5.98
2023-04-15T02:48:09.361Z,5.95
2023-04-15T02:49:10.049Z,5.95
2023-04-15T02:50:10.742Z,5.95
2023-04-15T02:51:11.437Z,5.96
2023-04-15T02:52:12.124Z,5.95
2023-04-15T02:53:12.822Z,5.96
2023-04-15T02:54:13.519Z,5.96
2023-04-15T02:55:14.205Z,5.99
2023-04-15T02:56:14.892Z,5.95
2023-04-15T02:57:15.595Z,5.95
2023-04-15T02:58:16.271Z,5.95
2023-04-15T02:59:16.977Z,5.93
2023-04-15T03:00:17.671Z,5.96
2023-04-15T03:01:18.372Z,5.95
2023-04-15T03:02:19.164Z,5.92
2023-04-15T03:03:19.999Z,5.90
2023-04-15T03:04:20.887Z,5.90
2023-04-15T03:05:21.609Z,5.90
2023-04-15T03:06:22.301Z,5.88
2023-04-15T03:07:22.991Z,5.85
2023-04-15T03:08:23.665Z,5.84
2023-04-15T03:09:24.344Z,5.81
2023-04-15T03:10:25.578Z,5.81
2023-04-15T03:11:25.712Z,5.81
2023-04-15T03:12:26.455Z,5.77
2023-04-15T03:13:27.239Z,5.77
2023-04-15T03:14:27.904Z,5.78
2023-04-15T03:15:28.635Z,5.77
2023-04-15T03:16:29.314Z,5.77
2023-04-15T03:17:30.071Z,5.75
2023-04-15T03:18:30.994Z,5.80
2023-04-15T03:19:31.701Z,5.77
2023-04-15T03:20:32.387Z,5.77
2023-04-15T03:21:33.082Z,5.77
2023-04-15T03:22:33.765Z,5.78
2023-04-15T03:23:34.445Z,5.75
2023-04-15T03:24:35.139Z,5.74
2023-04-15T03:25:35.826Z,5.73
2023-04-15T03:26:36.504Z,5.70
2023-04-15T03:27:38.029Z,5.73
2023-04-15T03:28:38.138Z,5.70
2023-04-15T03:29:38.818Z,5.73
2023-04-15T03:30:39.532Z,5.73
2023-04-15T03:31:40.310Z,5.73
2023-04-15T03:32:40.981Z,5.70
2023-04-15T03:33:41.658Z,5.75
2023-04-15T03:34:42.370Z,5.75
2023-04-15T03:35:43.057Z,5.73
2023-04-15T03:36:43.760Z,5.74
2023-04-15T03:37:44.470Z,5.74
2023-04-15T03:38:45.173Z,5.73
2023-04-15T03:39:45.924Z,5.74
2023-04-15T03:40:46.633Z,5.74
2023-04-15T03:41:47.324Z,5.70
2023-04-15T03:42:48.024Z,5.70
2023-04-15T03:43:48.706Z,5.67
2023-04-15T03:44:49.405Z,5.63
2023-04-15T03:45:50.101Z,5.66
2023-04-15T03:46:50.892Z,5.65
2023-04-15T03:47:51.677Z,5.66
2023-04-15T03:48:52.468Z,5.62
2023-04-15T03:49:53.195Z,5.59
2023-04-15T03:50:53.868Z,5.56
2023-04-15T03:51:54.578Z,5.55
2023-04-15T03:52:55.255Z,5.51
2023-04-15T03:53:55.944Z,5.52
2023-04-15T03:54:56.621Z,5.51
2023-04-15T03:55:57.297Z,5.52
2023-04-15T03:56:58.016Z,5.55
2023-04-15T03:57:58.718Z,5.56
2023-04-15T03:58:59.888Z,5.58
2023-04-15T04:00:00.225Z,5.62
2023-04-15T04:01:00.904Z,5.63
2023-04-15T04:02:02.405Z,5.62
2023-04-15T04:03:02.692Z,5.65
2023-04-15T04:04:03.620Z,5.63
2023-04-15T04:05:04.389Z,5.63
2023-04-15T04:06:05.101Z,5.67
2023-04-15T04:07:05.876Z,5.63
2023-04-15T04:08:06.581Z,5.62
2023-04-15T04:09:07.273Z,5.63
2023-04-15T04:10:07.939Z,5.63
2023-04-15T04:11:08.653Z,5.62
2023-04-15T04:12:09.384Z,5.63
2023-04-15T04:13:10.065Z,5.62
2023-04-15T04:14:10.841Z,5.62
2023-04-15T04:15:11.560Z,5.63
2023-04-15T04:16:12.548Z,5.60
2023-04-15T04:17:13.406Z,5.56
2023-04-15T04:18:14.414Z,5.55
2023-04-15T04:19:15.123Z,5.55
2023-04-15T04:20:15.848Z,5.52
2023-04-15T04:21:16.549Z,5.52
2023-04-15T04:22:17.227Z,5.47
2023-04-15T04:23:17.922Z,5.48
2023-04-15T04:24:18.606Z,5.45
2023-04-15T04:25:19.293Z,5.44
2023-04-15T04:26:19.986Z,5.45
2023-04-15T04:27:20.669Z,5.42
2023-04-15T04:28:21.361Z,5.42
2023-04-15T04:29:22.046Z,5.41
2023-04-15T04:30:22.776Z,5.41
2023-04-15T04:31:23.533Z,5.40
2023-04-15T04:32:24.314Z,5.38
2023-04-15T04:33:24.975Z,5.40
2023-04-15T04:34:25.762Z,5.37
2023-04-15T04:35:26.768Z,5.33
2023-04-15T04:36:27.463Z,5.35
2023-04-15T04:37:28.144Z,5.33
2023-04-15T04:38:28.829Z,5.32
2023-04-15T04:39:29.527Z,5.33
2023-04-15T04:40:30.207Z,5.30
2023-04-15T04:41:30.918Z,5.30
2023-04-15T04:42:31.602Z,5.30
2023-04-15T04:43:32.975Z,5.30
2023-04-15T04:44:33.068Z,5.30
2023-04-15T04:45:33.780Z,5.29
2023-04-15T04:46:34.474Z,5.29
2023-04-15T04:47:35.180Z,5.32
2023-04-15T04:48:35.878Z,5.30
2023-04-15T04:49:36.561Z,5.30
2023-04-15T04:50:37.273Z,5.32
2023-04-15T04:51:37.962Z,5.33
2023-04-15T04:52:38.651Z,5.33
2023-04-15T04:53:39.339Z,5.30
2023-04-15T04:54:40.095Z,5.30
2023-04-15T04:55:40.814Z,5.29
2023-04-15T04:56:41.512Z,5.29
2023-04-15T04:57:42.744Z,5.27
2023-04-15T04:58:43.906Z,5.26
2023-04-15T04:59:43.449Z,5.24
2023-04-15T05:00:44.143Z,5.23
2023-04-15T05:01:44.897Z,5.26
2023-04-15T05:02:45.684Z,5.22
2023-04-15T05:03:46.469Z,5.23
2023-04-15T05:04:47.177Z,5.22
2023-04-15T05:05:47.889Z,5.22
2023-04-15T05:06:48.581Z,5.20
2023-04-15T05:07:49.289Z,5.20
2023-04-15T05:08:49.968Z,5.20
2023-04-15T05:09:50.660Z,5.19
2023-04-15T05:10:51.360Z,5.15
2023-04-15T05:11:52.274Z,5.14
2023-04-15T05:12:52.982Z,5.11
2023-04-15T05:13:53.676Z,5.11
2023-04-15T05:14:54.369Z,5.11
2023-04-15T05:15:55.069Z,5.11
2023-04-15T05:16:55.869Z,5.14
2023-04-15T05:17:56.629Z,5.09
2023-04-15T05:18:57.547Z,5.11
2023-04-15T05:19:58.243Z,5.12
2023-04-15T05:20:58.947Z,5.14
2023-04-15T05:21:59.635Z,5.14
2023-04-15T05:23:00.320Z,5.17
2023-04-15T05:24:01.141Z,5.19
2023-04-15T05:25:02.092Z,5.22
2023-04-15T05:26:02.806Z,5.23
2023-04-15T05:27:03.496Z,5.20
2023-04-15T05:28:04.206Z,5.23
2023-04-15T05:29:04.875Z,5.23
2023-04-15T05:30:05.565Z,5.26
2023-04-15T05:31:06.328Z,5.29
2023-04-15T05:32:07.032Z,5.32
2023-04-15T05:33:07.712Z,5.32
2023-04-15T05:34:08.424Z,5.35
2023-04-15T05:35:09.316Z,5.41
2023-04-15T05:36:10.026Z,5.42
2023-04-15T05:37:10.708Z,5.44
2023-04-15T05:38:11.425Z,5.47
2023-04-15T05:39:12.082Z,5.51
2023-04-15T05:40:12.783Z,5.52
2023-04-15T05:41:13.648Z,5.55
2023-04-15T05:42:14.346Z,5.58
2023-04-15T05:43:15.027Z,5.60
2023-04-15T05:44:15.776Z,5.60
2023-04-15T05:45:16.766Z,5.66
2023-04-15T05:46:17.965Z,5.67
2023-04-15T05:47:18.112Z,5.69
2023-04-15T05:48:18.856Z,5.70
2023-04-15T05:49:19.767Z,5.77
2023-04-15T05:50:20.596Z,5.80
2023-04-15T05:51:21.306Z,5.81
2023-04-15T05:52:22.049Z,5.83
2023-04-15T05:53:22.721Z,5.84
2023-04-15T05:54:23.418Z,5.88
2023-04-15T05:55:24.084Z,5.93
2023-04-15T05:56:24.783Z,5.92
2023-04-15T05:57:25.486Z,5.93
2023-04-15T05:58:26.984Z,5.98
2023-04-15T05:59:27.087Z,6.01
2023-04-15T06:00:27.831Z,6.05
2023-04-15T06:01:28.498Z,6.05
2023-04-15T06:02:29.352Z,6.06
2023-04-15T06:03:30.623Z,6.08
2023-04-15T06:04:30.888Z,6.11
2023-04-15T06:05:31.921Z,6.16
2023-04-15T06:06:32.601Z,6.16
2023-04-15T06:07:33.700Z,6.19
2023-04-15T06:08:33.817Z,6.24
2023-04-15T06:09:34.495Z,6.24
2023-04-15T06:10:35.218Z,6.28
2023-04-15T06:11:35.899Z,6.28
2023-04-15T06:12:36.605Z,6.30
2023-04-15T06:13:37.272Z,6.35
2023-04-15T06:14:37.984Z,6.36
2023-04-15T06:15:38.655Z,6.39
2023-04-15T06:16:39.428Z,6.42
2023-04-15T06:17:40.158Z,6.42
2023-04-15T06:18:40.863Z,6.42
2023-04-15T06:19:41.538Z,6.43
2023-04-15T06:20:42.259Z,6.45
2023-04-15T06:21:42.961Z,6.51
2023-04-15T06:22:43.672Z,6.48
2023-04-15T06:23:44.352Z,6.51
2023-04-15T06:24:45.384Z,6.54
2023-04-15T06:25:46.101Z,6.54
2023-04-15T06:26:47.189Z,6.60
2023-04-15T06:27:47.589Z,6.60
2023-04-15T06:28:48.283Z,6.64
2023-04-15T06:29:48.978Z,6.68
2023-04-15T06:30:49.748Z,6.71
2023-04-15T06:31:50.446Z,6.73
2023-04-15T06:32:51.177Z,6.78
2023-04-15T06:33:51.879Z,6.83
2023-04-15T06:34:52.777Z,6.86
2023-04-15T06:35:53.481Z,6.89
2023-04-15T06:36:54.178Z,6.93
2023-04-15T06:37:54.880Z,6.96
2023-04-15T06:38:55.567Z,6.97
2023-04-15T06:39:56.269Z,7.00
2023-04-15T06:40:56.959Z,6.99
2023-04-15T06:41:57.662Z,6.99
2023-04-15T06:42:58.340Z,7.00
2023-04-15T06:43:59.033Z,6.99
2023-04-15T06:44:59.718Z,7.01
2023-04-15T06:46:00.470Z,7.01
2023-04-15T06:47:01.245Z,7.01
2023-04-15T06:48:01.942Z,7.04
2023-04-15T06:49:02.804Z,7.05
2023-04-15T06:50:03.593Z,7.07
2023-04-15T06:51:04.290Z,7.07
2023-04-15T06:52:04.983Z,7.07
2023-04-15T06:53:05.685Z,7.08
2023-04-15T06:54:06.374Z,7.11
2023-04-15T06:55:07.868Z,7.11
2023-04-15T06:56:07.981Z,7.15
2023-04-15T06:57:08.683Z,7.15
2023-04-15T06:58:09.757Z,7.19
2023-04-15T06:59:10.835Z,7.19
2023-04-15T07:00:11.518Z,7.24
2023-04-15T07:01:12.249Z,7.26
2023-04-15T07:02:13.289Z,7.27
2023-04-15T07:03:14.074Z,7.33
2023-04-15T07:04:14.770Z,7.36
2023-04-15T07:05:15.444Z,7.41
2023-04-15T07:06:16.963Z,7.42
2023-04-15T07:07:17.082Z,7.42
2023-04-15T07:08:17.770Z,7.44
2023-04-15T07:09:18.444Z,7.47
2023-04-15T07:10:19.143Z,7.48
2023-04-15T07:11:19.868Z,7.48
2023-04-15T07:12:20.548Z,7.52
2023-04-15T07:13:21.260Z,7.52
2023-04-15T07:14:22.418Z,7.58
2023-04-15T07:15:22.926Z,7.60
2023-04-15T07:16:23.031Z,7.67
2023-04-15T07:17:23.830Z,7.69
2023-04-15T07:18:24.537Z,7.71
2023-04-15T07:19:25.227Z,7.76
2023-04-15T07:20:25.965Z,7.79
2023-04-15T07:21:26.701Z,7.86
2023-04-15T07:22:27.405Z,7.91
2023-04-15T07:23:28.287Z,7.95
2023-04-15T07:24:28.993Z,8.03
2023-04-15T07:25:29.704Z,8.09
2023-04-15T07:26:30.375Z,8.13
2023-04-15T07:27:31.129Z,8.17
2023-04-15T07:28:31.812Z,8.24
2023-04-15T07:29:32.493Z,8.27
2023-04-15T07:30:33.196Z,8.34
2023-04-15T07:31:33.923Z,8.36
2023-04-15T07:32:34.677Z,8.42
2023-04-15T07:33:35.347Z,8.45
2023-04-15T07:34:36.062Z,8.50
2023-04-15T07:35:36.760Z,8.55
2023-04-15T07:36:37.460Z,8.61
2023-04-15T07:37:38.139Z,8.64
2023-04-15T07:38:38.839Z,8.68
2023-04-15T07:39:39.712Z,8.71
2023-04-15T07:40:40.410Z,8.79
2023-04-15T07:41:41.209Z,8.83
2023-04-15T07:42:41.906Z,8.88
2023-04-15T07:43:42.578Z,8.91
2023-04-15T07:44:43.265Z,8.91
2023-04-15T07:45:44.018Z,8.97
2023-04-15T07:46:44.703Z,9.00
2023-04-15T07:47:45.576Z,9.01
2023-04-15T07:48:46.314Z,9.06
2023-04-15T07:49:47.004Z,9.12
2023-04-15T07:50:47.725Z,9.10
2023-04-15T07:51:49.389Z,9.16
2023-04-15T07:52:48.959Z,9.17
2023-04-15T07:53:49.651Z,9.23
2023-04-15T07:54:50.375Z,9.24
2023-04-15T07:55:51.056Z,9.27
2023-04-15T07:56:51.820Z,9.34
2023-04-15T07:57:52.519Z,9.35
2023-04-15T07:58:53.208Z,9.40
2023-04-15T07:59:53.907Z,9.42
2023-04-15T08:00:54.618Z,9.44
2023-04-15T08:01:55.336Z,9.49
2023-04-15T08:02:56.283Z,9.52
2023-04-15T08:03:57.285Z,9.58
2023-04-15T08:04:58.158Z,9.59
2023-04-15T08:05:58.840Z,9.60
2023-04-15T08:06:59.525Z,9.65
2023-04-15T08:08:00.206Z,9.68
2023-04-15T08:09:01.242Z,9.73
2023-04-15T08:10:01.749Z,9.78
2023-04-15T08:11:02.473Z,9.83
2023-04-15T08:12:03.175Z,9.85
2023-04-15T08:13:03.962Z,9.89
2023-04-15T08:14:04.641Z,9.93
2023-04-15T08:15:05.382Z,9.98
2023-04-15T08:16:06.188Z,9.99
2023-04-15T08:17:06.880Z,10.04
2023-04-15T08:18:07.625Z,10.09
2023-04-15T08:19:08.362Z,10.17
2023-04-15T08:20:09.075Z,10.24
2023-04-15T08:21:09.795Z,10.29
2023-04-15T08:22:17.598Z,10.35
2023-04-15T08:23:11.725Z,10.42
2023-04-15T08:24:12.426Z,10.43
2023-04-15T08:25:13.229Z,10.49
2023-04-15T08:26:13.940Z,10.51
2023-04-15T08:27:14.655Z,10.57
2023-04-15T08:28:15.376Z,10.62
2023-04-15T08:29:16.160Z,10.66
2023-04-15T08:30:16.865Z,10.66
2023-04-15T08:31:17.604Z,10.69
2023-04-15T08:32:18.344Z,10.72
2023-04-15T08:33:19.089Z,10.72
2023-04-15T08:34:19.798Z,10.76
2023-04-15T08:35:20.529Z,10.81
2023-04-15T08:36:21.498Z,10.83
2023-04-15T08:37:22.586Z,10.88
2023-04-15T08:38:23.156Z,10.91
2023-04-15T08:39:23.359Z,10.98
2023-04-15T08:40:24.080Z,11.03
2023-04-15T08:41:24.823Z,11.09
2023-04-15T08:42:25.553Z,11.19
2023-04-15T08:43:26.351Z,11.23
2023-04-15T08:44:27.084Z,11.26
2023-04-15T08:45:27.818Z,11.31
2023-04-15T08:46:28.570Z,11.39
2023-04-15T08:47:29.294Z,11.41
2023-04-15T08:48:31.486Z,11.45
2023-04-15T08:49:31.022Z,11.45
2023-04-15T08:50:31.763Z,11.46
2023-04-15T08:51:32.462Z,11.42
2023-04-15T08:52:33.171Z,11.36
2023-04-15T08:53:34.029Z,11.35
2023-04-15T08:54:34.794Z,11.30
2023-04-15T08:55:35.544Z,11.30
2023-04-15T08:56:36.314Z,11.26
2023-04-15T08:57:37.004Z,11.24
2023-04-15T08:58:37.722Z,11.27
2023-04-15T08:59:38.725Z,11.26
2023-04-15T09:00:39.487Z,11.28
2023-04-15T09:01:40.284Z,11.35
2023-04-15T09:02:41.322Z,11.36
2023-04-15T09:03:42.214Z,11.44
2023-04-15T09:04:42.952Z,11.41
2023-04-15T09:05:43.695Z,11.46
2023-04-15T09:06:44.383Z,11.53
2023-04-15T09:07:45.159Z,11.54
2023-04-15T09:08:45.854Z,11.57
2023-04-15T09:09:46.574Z,11.62
2023-04-15T09:10:47.525Z,11.67
2023-04-15T09:11:48.218Z,11.70
2023-04-15T09:12:48.942Z,11.77
2023-04-15T09:13:49.654Z,11.82
2023-04-15T09:14:50.377Z,11.90
2023-04-15T09:15:51.136Z,11.96
2023-04-15T09:16:52.043Z,12.03
2023-04-15T09:17:52.748Z,12.12
2023-04-15T09:18:53.458Z,12.19
2023-04-15T09:19:54.173Z,12.29
2023-04-15T09:20:54.891Z,12.33
2023-04-15T09:21:58.451Z,12.43
2023-04-15T09:22:56.255Z,12.55
2023-04-15T09:23:57.375Z,12.67
2023-04-15T09:24:57.596Z,12.71
2023-04-15T09:25:58.309Z,12.84
2023-04-15T09:26:59.039Z,12.91
2023-04-15T09:27:59.775Z,13.06
2023-04-15T09:29:00.491Z,13.14
2023-04-15T09:30:01.214Z,13.22
2023-04-15T09:31:02.022Z,13.25
2023-04-15T09:32:02.762Z,13.29
2023-04-15T09:33:03.514Z,13.31
2023-04-15T09:34:04.882Z,13.29
2023-04-15T09:35:05.335Z,13.27
2023-04-15T09:36:06.062Z,13.27
2023-04-15T09:37:07.731Z,13.27
2023-04-15T09:38:07.702Z,13.24
2023-04-15T09:39:08.428Z,13.22
2023-04-15T09:40:09.160Z,13.27
2023-04-15T09:41:09.872Z,13.28
2023-04-15T09:42:10.580Z,13.28
2023-04-15T09:43:11.582Z,13.35
2023-04-15T09:44:12.389Z,13.36
2023-04-15T09:45:13.197Z,13.35
2023-04-15T09:46:14.004Z,13.44
2023-04-15T09:47:14.697Z,13.47
2023-04-15T09:48:15.402Z,13.59
2023-04-15T09:49:16.164Z,13.68
2023-04-15T09:50:17.175Z,13.68
2023-04-15T09:51:17.859Z,13.71
2023-04-15T09:52:18.557Z,13.80
2023-04-15T09:53:19.301Z,13.83
2023-04-15T09:54:20.029Z,13.87
2023-04-15T09:55:20.765Z,13.98
2023-04-15T09:56:21.465Z,13.94
2023-04-15T09:57:22.185Z,13.93
2023-04-15T09:58:22.898Z,13.91
2023-04-15T09:59:23.619Z,13.87
2023-04-15T10:00:24.363Z,13.84
2023-04-15T10:01:25.138Z,13.83
2023-04-15T10:02:26.910Z,13.84
2023-04-15T10:03:28.146Z,13.87
2023-04-15T10:04:27.558Z,13.94
2023-04-15T10:05:29.726Z,14.02
2023-04-15T10:06:29.322Z,14.12
2023-04-15T10:07:30.039Z,14.20
2023-04-15T10:08:30.756Z,14.29
2023-04-15T10:09:31.454Z,14.38
2023-04-15T10:10:32.192Z,14.42
2023-04-15T10:11:32.912Z,14.54
2023-04-15T10:12:33.658Z,14.67
2023-04-15T16:22:34.437Z,11.01
2023-04-15T16:23:36.299Z,11.02
2023-04-15T16:24:37.004Z,10.98
2023-04-15T16:25:40.640Z,11.01
2023-04-15T16:26:38.471Z,10.99
2023-04-15T16:28:39.950Z,10.90
2023-04-15T16:29:40.669Z,10.91
2023-04-15T16:30:41.375Z,10.87
2023-04-15T16:31:42.122Z,10.84
2023-04-15T16:32:43.533Z,10.84
2023-04-15T16:33:43.680Z,10.81
2023-04-15T16:34:44.411Z,10.81
2023-04-15T16:35:45.115Z,10.80
2023-04-15T16:36:46.432Z,10.78
2023-04-15T16:37:48.545Z,10.75
2023-04-15T16:38:48.863Z,10.73
2023-04-15T16:39:49.147Z,10.73
2023-04-15T16:40:49.749Z,10.75
2023-04-15T16:41:50.456Z,10.70
2023-04-15T16:42:50.988Z,10.73
2023-04-15T16:43:52.051Z,10.68
2023-04-15T16:44:52.346Z,10.72
2023-04-15T16:45:53.760Z,10.69
2023-04-15T16:46:53.939Z,10.66
2023-04-15T16:47:54.708Z,10.65
2023-04-15T16:48:55.416Z,10.65
2023-04-15T16:49:56.226Z,10.62
2023-04-15T16:50:57.130Z,10.60
2023-04-15T16:51:57.846Z,10.63
2023-04-15T16:52:58.540Z,10.62
2023-04-15T16:54:00.187Z,10.63
2023-04-15T16:55:00.130Z,10.63
2023-04-15T16:56:00.936Z,10.65
2023-04-15T16:57:01.430Z,10.60
2023-04-15T16:58:04.219Z,10.60
2023-04-15T16:59:02.544Z,10.57
2023-04-15T17:00:03.769Z,10.57
2023-04-15T17:01:04.528Z,10.60
2023-04-15T17:02:05.276Z,10.60
2023-04-15T17:03:05.789Z,10.58
2023-04-15T17:04:06.353Z,10.55
2023-04-15T17:05:07.129Z,10.57
2023-04-15T17:06:08.361Z,10.58
2023-04-15T17:07:08.478Z,10.62
2023-04-15T17:08:09.294Z,10.60
2023-04-15T17:09:10.042Z,10.62
2023-04-15T17:10:10.854Z,10.62
2023-04-15T17:11:11.571Z,10.62
2023-04-15T17:12:13.208Z,10.63
2023-04-15T17:13:13.359Z,10.65
2023-04-15T17:15:55.114Z,10.62
2023-04-15T17:16:54.712Z,10.65
2023-04-15T17:17:56.098Z,10.62
2023-04-15T17:18:56.248Z,10.66
2023-04-15T17:19:56.979Z,10.63
2023-04-15T17:20:57.642Z,10.65
2023-04-15T17:21:58.357Z,10.65
2023-04-15T17:22:59.065Z,10.63
2023-04-15T17:23:59.773Z,10.60
2023-04-15T17:25:00.467Z,10.58
2023-04-15T17:26:01.174Z,10.55
2023-04-15T17:27:03.725Z,10.58
2023-04-15T17:28:02.360Z,10.57
2023-04-15T17:29:03.216Z,10.55
2023-04-15T17:30:04.054Z,10.55
2023-04-15T17:31:04.769Z,10.55
2023-04-15T17:32:05.491Z,10.55
2023-04-15T17:33:55.554Z,10.52
2023-04-15T17:34:13.233Z,10.51
2023-04-15T17:35:07.745Z,10.51
2023-04-15T17:36:08.424Z,10.49
2023-04-15T17:37:09.148Z,10.47
2023-04-15T17:38:09.837Z,10.46
2023-04-15T17:39:10.557Z,10.43
2023-04-15T17:40:11.251Z,10.42
2023-04-15T17:41:11.947Z,10.44
2023-04-15T17:42:12.674Z,10.43
2023-04-15T17:43:13.368Z,10.44
2023-04-15T17:44:14.081Z,10.47
2023-04-15T17:45:14.774Z,10.46
2023-04-15T17:46:15.533Z,10.46
2023-04-15T17:47:16.272Z,10.44
2023-04-15T17:48:16.947Z,10.39
2023-04-15T17:49:17.656Z,10.43
2023-04-15T17:50:18.363Z,10.43
2023-04-15T17:51:19.061Z,10.42
2023-04-15T17:52:19.801Z,10.43
2023-04-15T17:53:20.498Z,10.43
2023-04-15T17:54:21.201Z,10.44
2023-04-15T17:55:21.909Z,10.44
2023-04-15T17:56:22.631Z,10.44
2023-04-15T17:57:23.386Z,10.42
2023-04-15T17:58:24.129Z,10.43
2023-04-15T17:59:24.882Z,10.39
2023-04-15T18:00:25.636Z,10.39
2023-04-15T18:01:26.507Z,10.39
2023-04-15T18:02:27.628Z,10.39
2023-04-15T18:03:28.074Z,10.36
2023-04-15T18:04:29.111Z,10.36
2023-04-15T18:05:29.999Z,10.36
2023-04-15T18:06:30.704Z,10.36
2023-04-15T18:07:31.465Z,10.36
2023-04-15T18:08:32.299Z,10.35
2023-04-15T18:09:33.066Z,10.36
2023-04-15T18:10:33.830Z,10.35
2023-04-15T18:11:34.633Z,10.34
2023-04-15T18:12:35.412Z,10.34
2023-04-15T18:13:36.172Z,10.36
2023-04-15T18:14:36.926Z,10.34
2023-04-15T18:15:37.704Z,10.34
2023-04-15T18:16:38.917Z,10.34
2023-04-15T18:17:39.211Z,10.29
2023-04-15T18:18:40.023Z,10.35
2023-04-15T18:19:40.768Z,10.34
2023-04-15T18:20:41.523Z,10.32
2023-04-15T18:21:42.280Z,10.32
2023-04-15T18:22:43.025Z,10.29
2023-04-15T18:23:43.760Z,10.26
2023-04-15T18:24:44.569Z,10.25
2023-04-15T18:25:45.382Z,10.22
2023-04-15T18:26:48.774Z,10.22
2023-04-15T18:27:46.895Z,10.22
2023-04-15T18:28:47.637Z,10.20
2023-04-15T18:29:48.387Z,10.22
2023-04-15T18:30:49.194Z,10.22
2023-04-15T18:31:50.000Z,10.20
2023-04-15T18:32:50.790Z,10.22
2023-04-15T18:33:51.551Z,10.24
2023-04-15T18:34:52.293Z,10.18
2023-04-15T18:35:53.068Z,10.17
2023-04-15T18:36:53.800Z,10.17
2023-04-15T18:37:54.592Z,10.17
2023-04-15T18:38:55.349Z,10.16
2023-04-15T18:39:56.102Z,10.18
2023-04-15T18:40:56.868Z,10.17
2023-04-15T18:41:57.621Z,10.18
2023-04-15T18:42:58.402Z,10.18
2023-04-15T18:43:59.167Z,10.20
2023-04-15T18:44:59.933Z,10.18
2023-04-15T18:46:00.771Z,10.18
2023-04-15T18:47:01.569Z,10.16
2023-04-15T18:48:02.321Z,10.11
2023-04-15T18:49:03.162Z,10.14
2023-04-15T18:50:04.060Z,10.17
2023-04-15T18:51:04.811Z,10.14
2023-04-15T18:52:05.594Z,10.11
2023-04-15T18:53:06.352Z,10.09
2023-04-15T18:54:07.149Z,10.06
2023-04-15T18:55:07.946Z,10.06
2023-04-15T18:56:08.714Z,10.06
2023-04-15T18:57:09.556Z,10.04
2023-04-15T18:58:10.297Z,9.99
2023-04-15T18:59:29.782Z,9.99
2023-04-15T19:00:12.072Z,9.99
2023-04-15T19:01:12.855Z,9.99
2023-04-15T19:02:13.620Z,10.01
2023-04-15T19:03:14.371Z,10.04
2023-04-15T19:04:15.195Z,10.01
2023-04-15T19:05:16.025Z,10.04
2023-04-15T19:06:16.840Z,10.04
2023-04-15T19:07:17.586Z,10.07
2023-04-15T19:08:18.354Z,10.09
2023-04-15T19:09:19.134Z,10.09
2023-04-15T19:10:19.848Z,10.10
2023-04-15T19:11:20.608Z,10.10
2023-04-15T19:12:21.351Z,10.10
2023-04-15T19:13:22.134Z,10.09
2023-04-15T19:14:22.880Z,10.10
2023-04-15T19:15:23.673Z,10.10
2023-04-15T19:16:24.491Z,10.09
2023-04-15T19:17:25.298Z,10.10
2023-04-15T19:18:26.061Z,10.09
2023-04-15T19:19:26.835Z,10.07
2023-04-15T19:20:27.600Z,10.10
2023-04-15T19:21:28.377Z,10.09
2023-04-15T19:22:29.172Z,10.09
2023-04-15T19:23:30.023Z,10.07
2023-04-15T19:24:32.843Z,10.07
2023-04-15T19:25:31.630Z,10.04
2023-04-15T19:26:32.380Z,10.01
2023-04-15T19:27:33.165Z,10.02
2023-04-15T19:28:33.988Z,10.01
2023-04-15T19:29:34.698Z,10.01